Terminal Aerodrome Forecast
Issued by NWS

Home | Current Version | Previous Version | Text Only | Print | Product List | Glossary On
Versions: 1 2 3 4 5 6 7 8 9 10 11 12 13 14 15 16 17 18 19 20 21 22 23 24 25 26 27 28 29 30 31 32 33 34 35 36 37 38
000
FTUS44 KHGX 220347 AAA
TAFIAH
TAF AMD
KIAH 220347Z 2204/2306 VRB04KT P6SM FEW080 FEW120 SCT200
      TEMPO 2204/2205 31009G15KT -RA BKN060 OVC120
     FM220500 25013G23KT P6SM SCT150
     FM221600 29022G32KT P6SM SCT035
     FM222000 31020G30KT P6SM SCT040
     FM230100 33012KT P6SM SKC=

USA.gov is the U.S. government's official web portal to all federal, state and local government web resources and services.